createdAt,value
2019-03-06T00:01:55.939Z,-0.20
2019-03-06T00:04:26.457Z,-0.20
2019-03-06T00:06:56.995Z,-0.20
2019-03-06T00:09:27.555Z,-0.20
2019-03-06T00:11:58.082Z,-0.20
2019-03-06T00:14:28.627Z,-0.10
2019-03-06T00:16:59.274Z,-0.10
2019-03-06T00:19:29.818Z,-0.20
2019-03-06T00:22:00.715Z,-0.10
2019-03-06T00:24:31.247Z,-0.10
2019-03-06T00:27:01.785Z,-0.10
2019-03-06T00:29:32.322Z,-0.10
2019-03-06T00:32:02.883Z,-0.10
2019-03-06T00:34:33.410Z,-0.10
2019-03-06T00:37:03.954Z,-0.10
2019-03-06T00:39:42.100Z,0.00
2019-03-06T00:42:15.935Z,0.00
2019-03-06T00:44:46.441Z,0.00
2019-03-06T00:47:16.998Z,0.00
2019-03-06T00:49:47.509Z,0.00
2019-03-06T00:52:18.047Z,0.00
2019-03-06T00:54:48.595Z,0.00
2019-03-06T00:57:19.141Z,0.00
2019-03-06T00:59:49.912Z,0.00
2019-03-06T01:02:20.427Z,0.00
2019-03-06T01:04:50.942Z,-0.10
2019-03-06T01:07:21.620Z,-0.10
2019-03-06T01:09:52.592Z,0.00
2019-03-06T01:12:23.206Z,-0.10
2019-03-06T01:14:53.715Z,-0.10
2019-03-06T01:17:27.409Z,-0.10
2019-03-06T01:19:57.941Z,0.00
2019-03-06T01:22:28.432Z,0.00
2019-03-06T01:24:59.071Z,-0.10
2019-03-06T01:27:30.210Z,-0.10
2019-03-06T01:30:04.100Z,-0.10
2019-03-06T01:32:34.833Z,-0.10
2019-03-06T01:35:33.881Z,-0.10
2019-03-06T01:38:32.190Z,-0.10
2019-03-06T01:41:07.581Z,0.00
2019-03-06T01:43:43.815Z,0.00
2019-03-06T01:46:14.467Z,0.00
2019-03-06T01:48:45.007Z,-0.20
2019-03-06T01:51:15.546Z,-0.30
2019-03-06T01:53:46.049Z,-0.30
2019-03-06T01:56:16.670Z,-0.30
2019-03-06T01:58:47.206Z,-0.30
2019-03-06T02:01:17.740Z,-0.30
2019-03-06T02:03:48.277Z,-0.30
2019-03-06T02:06:19.392Z,-0.30
2019-03-06T02:08:50.340Z,-0.40
2019-03-06T02:11:20.987Z,-0.40
2019-03-06T02:13:52.174Z,-0.50
2019-03-06T02:16:23.380Z,-0.50
2019-03-06T02:18:53.943Z,-0.50
2019-03-06T02:21:24.484Z,-0.50
2019-03-06T02:23:55.098Z,-0.40
2019-03-06T02:26:26.455Z,-0.40
2019-03-06T02:28:57.028Z,-0.30
2019-03-06T02:31:28.233Z,-0.30
2019-03-06T02:33:59.272Z,-0.30
2019-03-06T02:36:29.985Z,-0.20
2019-03-06T02:39:00.618Z,-0.20
2019-03-06T02:41:31.175Z,-0.10
2019-03-06T02:44:01.713Z,0.00
2019-03-06T02:46:32.312Z,0.00
2019-03-06T02:49:03.176Z,0.00
2019-03-06T02:51:34.163Z,0.00
2019-03-06T02:54:04.813Z,0.10
2019-03-06T02:56:35.442Z,0.10
2019-03-06T02:59:11.827Z,0.10
2019-03-06T03:02:10.322Z,0.10
2019-03-06T03:04:56.200Z,0.10
2019-03-06T03:07:26.806Z,0.10
2019-03-06T03:09:58.000Z,0.10
2019-03-06T03:12:30.045Z,0.10
2019-03-06T03:15:01.022Z,0.10
2019-03-06T03:17:32.454Z,0.00
2019-03-06T03:20:03.247Z,0.00
2019-03-06T03:22:34.237Z,0.00
2019-03-06T03:25:05.506Z,0.00
2019-03-06T03:27:36.108Z,0.00
2019-03-06T03:30:11.065Z,0.00
2019-03-06T03:32:41.688Z,0.00
2019-03-06T03:35:12.348Z,0.00
2019-03-06T03:37:42.855Z,0.10
2019-03-06T03:40:13.881Z,0.20
2019-03-06T03:42:44.486Z,0.20
2019-03-06T03:45:15.647Z,0.10
2019-03-06T03:47:46.251Z,0.00
2019-03-06T03:50:16.850Z,0.00
2019-03-06T03:52:47.999Z,0.00
2019-03-06T03:55:19.288Z,0.00
2019-03-06T03:57:50.380Z,0.00
2019-03-06T04:00:20.975Z,-0.10
2019-03-06T04:02:51.682Z,-0.10
2019-03-06T04:05:23.405Z,-0.10
2019-03-06T04:07:53.970Z,-0.10
2019-03-06T04:10:24.531Z,-0.20
2019-03-06T04:12:55.406Z,-0.20
2019-03-06T04:15:26.616Z,-0.10
2019-03-06T04:18:16.512Z,-0.10
2019-03-06T04:20:47.038Z,0.00
2019-03-06T04:23:17.611Z,-0.20
2019-03-06T04:25:48.135Z,-0.10
2019-03-06T04:28:18.667Z,-0.10
2019-03-06T04:30:52.676Z,0.00
2019-03-06T04:33:23.157Z,0.00
2019-03-06T04:35:53.704Z,0.00
2019-03-06T04:38:24.581Z,0.00
2019-03-06T04:40:55.109Z,0.00
2019-03-06T04:43:26.107Z,-0.10
2019-03-06T04:45:57.426Z,-0.10
2019-03-06T04:48:29.871Z,0.00
2019-03-06T04:51:00.394Z,0.10
2019-03-06T04:53:30.959Z,0.10
2019-03-06T04:56:01.498Z,0.10
2019-03-06T04:58:32.070Z,0.00
2019-03-06T05:01:02.614Z,0.00
2019-03-06T05:03:33.302Z,-0.10
2019-03-06T05:06:03.822Z,-0.10
2019-03-06T05:08:34.538Z,-0.10
2019-03-06T05:11:05.081Z,0.00
2019-03-06T05:13:35.681Z,-0.10
2019-03-06T05:16:06.224Z,-0.10
2019-03-06T05:18:55.668Z,0.00
2019-03-06T05:21:26.326Z,0.00
2019-03-06T05:23:56.869Z,0.00
2019-03-06T05:26:27.412Z,0.00
2019-03-06T05:28:58.373Z,-0.10
2019-03-06T05:31:28.923Z,0.00
2019-03-06T05:33:59.434Z,0.00
2019-03-06T05:37:10.701Z,0.00
2019-03-06T05:39:41.248Z,0.10
2019-03-06T05:42:11.814Z,0.00
2019-03-06T05:44:43.047Z,0.10
2019-03-06T05:47:13.559Z,0.10
2019-03-06T05:49:44.333Z,0.10
2019-03-06T05:52:14.880Z,0.10
2019-03-06T05:54:45.434Z,0.20
2019-03-06T05:57:16.839Z,0.20
2019-03-06T05:59:47.359Z,0.20
2019-03-06T06:02:17.946Z,0.20
2019-03-06T06:04:48.446Z,0.20
2019-03-06T06:07:18.972Z,0.20
2019-03-06T06:09:49.864Z,0.30
2019-03-06T06:12:20.619Z,0.30
2019-03-06T06:14:51.116Z,0.30
2019-03-06T06:17:21.827Z,0.30
2019-03-06T06:19:52.383Z,0.40
2019-03-06T06:22:29.975Z,0.40
2019-03-06T06:25:00.496Z,0.50
2019-03-06T06:27:31.205Z,0.40
2019-03-06T06:30:01.750Z,0.50
2019-03-06T06:32:32.996Z,0.50
2019-03-06T06:35:03.826Z,0.50
2019-03-06T06:37:34.910Z,0.40
2019-03-06T06:40:06.819Z,0.50
2019-03-06T06:42:37.344Z,0.40
2019-03-06T06:45:08.952Z,0.40
2019-03-06T06:48:07.420Z,0.50
2019-03-06T06:50:38.754Z,0.50
2019-03-06T06:53:30.003Z,0.50
2019-03-06T06:56:14.091Z,0.60
2019-03-06T06:59:05.617Z,0.70
2019-03-06T07:02:57.105Z,0.80
2019-03-06T07:05:32.770Z,0.80
2019-03-06T07:08:37.833Z,0.90
2019-03-06T07:11:42.692Z,0.90
2019-03-06T07:14:32.164Z,0.70
2019-03-06T07:17:17.160Z,0.70
2019-03-06T07:20:09.651Z,0.80
2019-03-06T07:23:11.870Z,0.80
2019-03-06T07:25:51.179Z,0.90
2019-03-06T07:28:46.142Z,0.90
2019-03-06T07:31:34.495Z,0.90
2019-03-06T07:34:33.432Z,1.00
2019-03-06T07:37:10.662Z,1.10
2019-03-06T07:39:49.385Z,1.20
2019-03-06T07:42:53.795Z,1.20
2019-03-06T07:45:59.864Z,1.30
2019-03-06T07:49:01.979Z,1.40
2019-03-06T07:51:57.698Z,1.40
2019-03-06T07:54:52.683Z,1.50
2019-03-06T07:57:31.111Z,1.60
2019-03-06T08:00:01.686Z,1.60
2019-03-06T08:02:55.915Z,1.70
2019-03-06T08:05:26.469Z,1.90
2019-03-06T08:07:56.994Z,1.90
2019-03-06T08:10:30.593Z,2.00
2019-03-06T08:13:06.918Z,2.20
2019-03-06T08:15:51.280Z,2.20
2019-03-06T08:18:37.680Z,2.30
2019-03-06T08:21:43.282Z,2.40
2019-03-06T08:24:39.000Z,2.50
2019-03-06T08:27:09.596Z,2.60
2019-03-06T08:29:40.109Z,2.80
2019-03-06T08:32:19.413Z,2.70
2019-03-06T08:34:49.936Z,2.90
2019-03-06T08:37:20.823Z,2.90
2019-03-06T08:39:51.420Z,3.00
2019-03-06T08:42:26.831Z,3.00
2019-03-06T08:45:01.335Z,3.00
2019-03-06T08:48:11.103Z,3.00
2019-03-06T08:51:21.817Z,3.10
2019-03-06T08:54:09.904Z,3.20
2019-03-06T08:56:48.011Z,3.30
2019-03-06T08:59:33.551Z,3.30
2019-03-06T09:02:21.804Z,3.40
2019-03-06T09:05:12.295Z,3.50
2019-03-06T09:07:58.920Z,3.60
2019-03-06T09:11:03.476Z,3.60
2019-03-06T09:13:45.135Z,3.70
2019-03-06T09:16:38.888Z,3.80
2019-03-06T09:19:41.119Z,3.80
2019-03-06T09:22:35.915Z,3.70
2019-03-06T09:25:18.348Z,3.70
2019-03-06T09:28:22.995Z,3.70
2019-03-06T09:31:18.669Z,3.70
2019-03-06T09:34:30.420Z,3.70
2019-03-06T09:37:10.465Z,3.70
2019-03-06T09:40:02.937Z,3.60
2019-03-06T09:42:39.472Z,3.60
2019-03-06T09:45:35.037Z,3.60
2019-03-06T09:48:23.909Z,3.60
2019-03-06T09:51:02.451Z,3.60
2019-03-06T09:53:53.458Z,3.60
2019-03-06T09:57:01.466Z,3.50
2019-03-06T09:59:50.942Z,3.50
2019-03-06T10:02:36.911Z,3.50
2019-03-06T10:05:18.944Z,3.50
2019-03-06T10:08:26.901Z,3.60
2019-03-06T10:11:03.488Z,3.60
2019-03-06T10:14:05.784Z,3.60
2019-03-06T10:16:48.882Z,3.70
2019-03-06T10:19:38.262Z,3.70
2019-03-06T10:22:09.479Z,3.70
2019-03-06T10:24:40.026Z,3.80
2019-03-06T10:27:10.531Z,3.70
2019-03-06T10:29:41.040Z,3.70
2019-03-06T10:32:11.569Z,3.80
2019-03-06T10:34:42.076Z,3.80
2019-03-06T10:37:12.646Z,3.90
2019-03-06T10:39:43.470Z,4.00
2019-03-06T10:42:13.997Z,4.10
2019-03-06T10:44:44.503Z,4.20
2019-03-06T10:47:15.033Z,4.30
2019-03-06T10:49:45.554Z,4.40
2019-03-06T10:52:16.393Z,4.30
2019-03-06T10:54:46.895Z,4.40
2019-03-06T10:57:17.445Z,4.40
2019-03-06T10:59:47.946Z,4.40
2019-03-06T11:02:18.503Z,4.40
2019-03-06T11:05:17.271Z,4.30
2019-03-06T11:07:49.696Z,4.40
2019-03-06T11:10:23.763Z,4.40
2019-03-06T11:12:53.171Z,4.40
2019-03-06T11:15:24.103Z,4.40
2019-03-06T11:17:55.343Z,4.40
2019-03-06T11:20:28.808Z,4.40
2019-03-06T11:23:00.847Z,4.40
2019-03-06T11:25:32.991Z,4.40
2019-03-06T11:28:04.155Z,4.40
2019-03-06T11:30:41.946Z,4.30
2019-03-06T11:33:13.803Z,4.30
2019-03-06T11:35:45.596Z,4.70
2019-03-06T11:38:18.819Z,4.50
2019-03-06T11:40:49.751Z,4.60
2019-03-06T11:43:20.402Z,4.70
2019-03-06T11:45:51.045Z,4.60
2019-03-06T11:48:21.966Z,4.60
2019-03-06T11:50:52.797Z,4.60
2019-03-06T11:53:23.345Z,4.60
2019-03-06T11:55:53.896Z,4.70
2019-03-06T11:58:24.430Z,4.80
2019-03-06T12:00:55.286Z,4.90
2019-03-06T12:03:26.464Z,4.90
2019-03-06T12:05:58.540Z,5.10
2019-03-06T12:08:30.399Z,5.10
2019-03-06T12:11:01.402Z,5.20
2019-03-06T12:13:31.915Z,5.20
2019-03-06T12:16:03.002Z,5.20
2019-03-06T12:18:34.157Z,5.10
2019-03-06T12:21:06.143Z,5.00
2019-03-06T12:23:36.689Z,5.00
2019-03-06T12:26:07.512Z,5.00
2019-03-06T12:28:38.061Z,4.90
2019-03-06T12:31:10.362Z,4.90
2019-03-06T12:33:40.895Z,4.90
2019-03-06T12:36:11.387Z,5.00
2019-03-06T12:38:41.929Z,4.90
2019-03-06T12:41:12.782Z,4.90
2019-03-06T12:43:44.726Z,4.90
2019-03-06T12:46:23.712Z,4.90
2019-03-06T12:49:16.427Z,4.90
2019-03-06T12:51:53.990Z,4.80
2019-03-06T12:54:19.087Z,4.80
2019-03-06T12:56:49.637Z,4.90
2019-03-06T12:59:20.151Z,4.90
2019-03-06T13:01:51.071Z,4.90
2019-03-06T13:04:21.571Z,5.00
2019-03-06T13:06:52.139Z,5.00
2019-03-06T13:09:22.651Z,5.00
2019-03-06T13:11:53.244Z,5.00
2019-03-06T13:14:23.987Z,5.00
2019-03-06T13:16:54.705Z,5.00
2019-03-06T13:19:25.330Z,4.90
2019-03-06T13:21:55.867Z,4.80
2019-03-06T13:24:26.403Z,5.00
2019-03-06T13:26:58.042Z,5.00
2019-03-06T13:29:28.688Z,5.10
2019-03-06T13:31:59.226Z,5.10
2019-03-06T13:34:39.426Z,5.10
2019-03-06T13:37:10.979Z,5.20
2019-03-06T13:39:41.499Z,5.30
2019-03-06T13:42:12.035Z,5.30
2019-03-06T13:44:42.555Z,5.30
2019-03-06T13:47:17.346Z,5.00
2019-03-06T13:49:47.993Z,5.00
2019-03-06T13:52:19.550Z,5.00
2019-03-06T13:54:50.077Z,5.00
2019-03-06T13:57:20.991Z,5.00
2019-03-06T13:59:51.510Z,4.90
2019-03-06T14:02:22.014Z,4.90
2019-03-06T14:04:52.757Z,4.90
2019-03-06T14:07:23.521Z,4.90
2019-03-06T14:09:54.064Z,4.90
2019-03-06T14:12:24.595Z,5.00
2019-03-06T14:14:55.115Z,5.00
2019-03-06T14:17:25.658Z,5.00
2019-03-06T14:19:56.285Z,5.00
2019-03-06T14:22:26.814Z,4.90
2019-03-06T14:24:57.430Z,5.00
2019-03-06T14:27:28.324Z,4.90
2019-03-06T14:29:58.879Z,4.90
2019-03-06T14:32:29.820Z,4.90
2019-03-06T14:35:00.467Z,4.90
2019-03-06T14:37:32.182Z,4.90
2019-03-06T14:40:09.992Z,4.90
2019-03-06T14:42:37.743Z,5.00
2019-03-06T14:45:10.573Z,5.00
2019-03-06T14:47:41.277Z,5.00
2019-03-06T14:50:12.921Z,4.90
2019-03-06T14:52:43.458Z,4.90
2019-03-06T14:55:14.469Z,5.00
2019-03-06T14:57:45.387Z,4.90
2019-03-06T15:00:16.864Z,4.90
2019-03-06T15:02:47.943Z,4.90
2019-03-06T15:05:20.066Z,5.00
2019-03-06T15:07:50.649Z,4.90
2019-03-06T15:10:22.225Z,5.00
2019-03-06T15:12:53.385Z,5.00
2019-03-06T15:15:24.040Z,5.00
2019-03-06T15:17:54.559Z,5.00
2019-03-06T15:20:25.993Z,5.00
2019-03-06T15:22:56.841Z,5.00
2019-03-06T15:25:27.391Z,5.00
2019-03-06T15:27:59.501Z,5.00
2019-03-06T15:30:30.482Z,5.00
2019-03-06T15:33:01.003Z,5.00
2019-03-06T15:35:31.548Z,4.90
2019-03-06T15:38:03.266Z,4.90
2019-03-06T15:40:33.803Z,5.00
2019-03-06T15:43:06.028Z,4.90
2019-03-06T15:45:36.771Z,4.90
2019-03-06T15:48:07.811Z,4.80
2019-03-06T15:50:38.856Z,4.70
2019-03-06T15:53:09.677Z,4.70
2019-03-06T15:55:40.184Z,4.70
2019-03-06T15:58:10.823Z,4.70
2019-03-06T16:00:46.244Z,4.70
2019-03-06T16:03:13.835Z,4.70
2019-03-06T16:05:44.842Z,4.60
2019-03-06T16:08:18.165Z,4.50
2019-03-06T16:10:48.878Z,4.50
2019-03-06T16:13:19.612Z,4.50
2019-03-06T16:15:50.318Z,4.40
2019-03-06T16:18:20.884Z,4.40
2019-03-06T16:20:51.462Z,4.40
2019-03-06T16:23:22.223Z,4.40
2019-03-06T16:25:52.742Z,4.30
2019-03-06T16:28:23.263Z,4.30
2019-03-06T16:30:53.819Z,4.30
2019-03-06T16:33:24.343Z,4.40
2019-03-06T16:35:54.981Z,4.30
2019-03-06T16:38:25.921Z,4.40
2019-03-06T16:40:56.371Z,4.40
2019-03-06T16:43:26.886Z,4.40
2019-03-06T16:45:57.643Z,4.40
2019-03-06T16:48:28.153Z,4.40
2019-03-06T16:50:58.770Z,4.50
2019-03-06T16:53:29.288Z,4.30
2019-03-06T16:56:01.259Z,4.40
2019-03-06T16:58:31.777Z,4.40
2019-03-06T17:01:02.531Z,4.30
2019-03-06T17:03:33.626Z,4.30
2019-03-06T17:06:04.664Z,4.30
2019-03-06T17:08:35.221Z,4.30
2019-03-06T17:11:06.169Z,4.30
2019-03-06T17:13:36.856Z,4.40
2019-03-06T17:16:07.480Z,4.40
2019-03-06T17:18:37.983Z,4.50
2019-03-06T17:21:08.715Z,4.50
2019-03-06T17:23:39.360Z,4.50
2019-03-06T17:26:10.978Z,4.50
2019-03-06T17:28:41.560Z,4.40
2019-03-06T17:31:12.069Z,4.40
2019-03-06T17:33:42.743Z,4.20
2019-03-06T17:36:13.344Z,4.30
2019-03-06T17:38:43.873Z,4.30
2019-03-06T17:41:14.400Z,4.40
2019-03-06T17:43:45.552Z,4.40
2019-03-06T17:46:16.085Z,4.40
2019-03-06T17:48:46.687Z,4.40
2019-03-06T17:51:17.253Z,4.40
2019-03-06T17:53:47.832Z,4.30
2019-03-06T17:56:18.395Z,4.30
2019-03-06T17:58:49.702Z,4.20
2019-03-06T18:01:23.878Z,4.20
2019-03-06T18:04:28.407Z,4.30
2019-03-06T18:06:59.008Z,4.20
2019-03-06T18:09:29.567Z,4.20
2019-03-06T18:12:00.098Z,4.20
2019-03-06T18:14:30.644Z,4.30
2019-03-06T18:17:01.216Z,4.30
2019-03-06T18:19:32.116Z,4.30
2019-03-06T18:22:02.660Z,4.30
2019-03-06T18:24:33.170Z,4.30
2019-03-06T18:27:03.961Z,4.20
2019-03-06T18:29:34.500Z,4.20
2019-03-06T18:32:05.023Z,4.20
2019-03-06T18:34:35.536Z,4.20
2019-03-06T18:37:06.100Z,4.20
2019-03-06T18:39:36.739Z,4.30
2019-03-06T18:42:07.293Z,4.20
2019-03-06T18:44:37.840Z,4.20
2019-03-06T18:47:08.536Z,4.20
2019-03-06T18:49:39.093Z,4.30
2019-03-06T18:52:09.606Z,4.20
2019-03-06T18:54:40.153Z,4.20
2019-03-06T18:57:13.336Z,4.20
2019-03-06T18:59:43.538Z,4.20
2019-03-06T19:02:14.104Z,4.10
2019-03-06T19:04:44.597Z,4.10
2019-03-06T19:07:15.128Z,4.10
2019-03-06T19:09:45.664Z,4.10
2019-03-06T19:12:16.195Z,4.10
2019-03-06T19:14:46.718Z,4.10
2019-03-06T19:17:17.251Z,4.10
2019-03-06T19:19:48.094Z,4.10
2019-03-06T19:22:18.735Z,4.10
2019-03-06T19:24:49.287Z,4.20
2019-03-06T19:27:19.904Z,4.10
2019-03-06T19:29:50.429Z,4.10
2019-03-06T19:32:20.994Z,4.10
2019-03-06T19:34:51.639Z,4.00
2019-03-06T19:37:22.169Z,4.00
2019-03-06T19:39:52.687Z,4.00
2019-03-06T19:42:23.780Z,4.00
2019-03-06T19:44:54.309Z,3.90
2019-03-06T19:47:25.120Z,4.00
2019-03-06T19:49:55.695Z,4.00
2019-03-06T19:52:26.220Z,4.00
2019-03-06T19:54:56.741Z,4.00
2019-03-06T19:57:38.139Z,3.90
2019-03-06T20:00:09.147Z,3.90
2019-03-06T20:02:39.679Z,4.00
2019-03-06T20:05:10.395Z,3.90
2019-03-06T20:07:40.927Z,3.90
2019-03-06T20:10:11.873Z,3.90
2019-03-06T20:12:42.610Z,3.90
2019-03-06T20:15:13.368Z,3.90
2019-03-06T20:17:44.008Z,3.90
2019-03-06T20:20:15.307Z,3.90
2019-03-06T20:22:45.955Z,3.80
2019-03-06T20:25:18.106Z,3.80
2019-03-06T20:27:53.324Z,3.90
2019-03-06T20:30:24.592Z,3.90
2019-03-06T20:32:57.024Z,3.80
2019-03-06T20:35:27.492Z,3.90
2019-03-06T20:37:58.638Z,3.80
2019-03-06T20:40:29.197Z,3.80
2019-03-06T20:42:59.799Z,3.80
2019-03-06T20:45:30.393Z,3.80
2019-03-06T20:48:00.950Z,3.80
2019-03-06T20:50:31.936Z,3.90
2019-03-06T20:53:02.517Z,3.80
2019-03-06T20:55:33.086Z,3.80
2019-03-06T20:58:04.015Z,3.80
2019-03-06T21:00:34.575Z,3.80
2019-03-06T21:03:05.124Z,3.90
2019-03-06T21:05:35.646Z,3.90
2019-03-06T21:08:06.217Z,3.90
2019-03-06T21:10:39.569Z,3.90
2019-03-06T21:13:10.105Z,3.90
2019-03-06T21:15:40.697Z,4.00
2019-03-06T21:18:12.176Z,4.00
2019-03-06T21:20:42.794Z,4.00
2019-03-06T21:23:13.361Z,4.00
2019-03-06T21:25:43.911Z,4.00
2019-03-06T21:28:14.585Z,4.00
2019-03-06T21:30:45.533Z,4.00
2019-03-06T21:33:16.092Z,4.00
2019-03-06T21:35:47.342Z,4.10
2019-03-06T21:38:18.175Z,4.10
2019-03-06T21:40:49.003Z,4.20
2019-03-06T21:43:19.584Z,4.20
2019-03-06T21:45:50.142Z,4.20
2019-03-06T21:48:20.780Z,4.20
2019-03-06T21:50:51.359Z,4.30
2019-03-06T21:53:21.960Z,4.30
2019-03-06T21:55:53.078Z,4.30
2019-03-06T21:58:24.544Z,4.30
2019-03-06T22:00:55.111Z,4.40
2019-03-06T22:03:25.728Z,4.40
2019-03-06T22:05:56.271Z,4.50
2019-03-06T22:08:26.915Z,4.50
2019-03-06T22:10:57.451Z,4.40
2019-03-06T22:13:28.058Z,4.40
2019-03-06T22:15:58.719Z,4.50
2019-03-06T22:18:29.342Z,4.50
2019-03-06T22:20:59.848Z,4.60
2019-03-06T22:23:30.490Z,4.60
2019-03-06T22:26:01.082Z,4.70
2019-03-06T22:28:31.641Z,4.60
2019-03-06T22:31:02.496Z,4.60
2019-03-06T22:33:33.047Z,4.60
2019-03-06T22:36:03.610Z,4.70
2019-03-06T22:38:34.258Z,4.70
2019-03-06T22:41:09.408Z,4.80
2019-03-06T22:43:40.046Z,4.70
2019-03-06T22:46:10.629Z,4.70
2019-03-06T22:48:41.152Z,4.70
2019-03-06T22:51:11.774Z,4.70
2019-03-06T22:53:42.283Z,4.60
2019-03-06T22:56:13.424Z,4.60
2019-03-06T22:58:43.942Z,4.70
2019-03-06T23:01:27.071Z,4.70
2019-03-06T23:03:57.967Z,4.70
2019-03-06T23:06:28.516Z,4.70
2019-03-06T23:08:59.074Z,4.70
2019-03-06T23:11:29.783Z,4.70
2019-03-06T23:14:00.369Z,4.80
2019-03-06T23:16:31.582Z,4.80
2019-03-06T23:19:02.158Z,4.90
2019-03-06T23:21:32.778Z,4.90
2019-03-06T23:24:03.649Z,4.90
2019-03-06T23:26:42.787Z,4.90
2019-03-06T23:29:09.443Z,4.80
2019-03-06T23:31:40.365Z,4.90
2019-03-06T23:34:10.987Z,4.90
2019-03-06T23:36:41.517Z,4.80
2019-03-06T23:39:14.953Z,4.90
2019-03-06T23:41:45.471Z,5.00
2019-03-06T23:44:16.611Z,4.90
2019-03-06T23:46:47.193Z,4.90
2019-03-06T23:49:17.799Z,4.90
2019-03-06T23:52:07.336Z,5.00
2019-03-06T23:54:37.909Z,5.00
2019-03-06T23:57:08.491Z,5.00
2019-03-06T23:59:39.315Z,4.90
